sensor_id;sensor_type;location;lat;lon;timestamp;temperature;humidity
9193;DHT22;4631;49.296;10.560;2022-08-01T00:01:59;21.50;99.90
9193;DHT22;4631;49.296;10.560;2022-08-01T00:04:28;21.40;99.90
9193;DHT22;4631;49.296;10.560;2022-08-01T00:06:54;21.40;99.90
9193;DHT22;4631;49.296;10.560;2022-08-01T00:09:21;21.30;99.90
9193;DHT22;4631;49.296;10.560;2022-08-01T00:11:48;21.30;99.90
9193;DHT22;4631;49.296;10.560;2022-08-01T00:14:14;21.20;99.90
9193;DHT22;4631;49.296;10.560;2022-08-01T00:16:41;21.30;99.90
9193;DHT22;4631;49.296;10.560;2022-08-01T00:19:08;21.30;99.90
9193;DHT22;4631;49.296;10.560;2022-08-01T00:21:36;21.20;99.90
9193;DHT22;4631;49.296;10.560;2022-08-01T00:24:02;21.20;99.90
9193;DHT22;4631;49.296;10.560;2022-08-01T00:26:29;21.20;99.90
9193;DHT22;4631;49.296;10.560;2022-08-01T00:28:56;21.10;99.90
9193;DHT22;4631;49.296;10.560;2022-08-01T00:31:22;21.10;99.90
9193;DHT22;4631;49.296;10.560;2022-08-01T00:33:49;21.10;99.90
9193;DHT22;4631;49.296;10.560;2022-08-01T00:36:15;21.10;99.90
9193;DHT22;4631;49.296;10.560;2022-08-01T00:38:43;21.00;99.90
9193;DHT22;4631;49.296;10.560;2022-08-01T00:41:10;21.00;99.90
9193;DHT22;4631;49.296;10.560;2022-08-01T00:43:37;21.00;99.90
9193;DHT22;4631;49.296;10.560;2022-08-01T00:46:03;21.00;99.90
9193;DHT22;4631;49.296;10.560;2022-08-01T00:48:30;21.00;99.90
9193;DHT22;4631;49.296;10.560;2022-08-01T00:50:57;21.00;99.90
9193;DHT22;4631;49.296;10.560;2022-08-01T00:53:23;20.90;99.90
9193;DHT22;4631;49.296;10.560;2022-08-01T00:55:52;20.90;99.90
9193;DHT22;4631;49.296;10.560;2022-08-01T00:58:19;20.90;99.90
9193;DHT22;4631;49.296;10.560;2022-08-01T01:00:46;20.80;99.90
9193;DHT22;4631;49.296;10.560;2022-08-01T01:03:12;20.80;99.90
9193;DHT22;4631;49.296;10.560;2022-08-01T01:05:40;20.80;99.90
9193;DHT22;4631;49.296;10.560;2022-08-01T01:08:10;20.80;99.90
9193;DHT22;4631;49.296;10.560;2022-08-01T01:10:40;20.80;99.90
9193;DHT22;4631;49.296;10.560;2022-08-01T01:13:11;20.70;99.90
9193;DHT22;4631;49.296;10.560;2022-08-01T01:15:39;20.70;99.90
9193;DHT22;4631;49.296;10.560;2022-08-01T01:18:08;20.70;99.90
9193;DHT22;4631;49.296;10.560;2022-08-01T01:20:37;20.70;99.90
9193;DHT22;4631;49.296;10.560;2022-08-01T01:23:19;20.70;99.90
9193;DHT22;4631;49.296;10.560;2022-08-01T01:25:53;20.60;99.90
9193;DHT22;4631;49.296;10.560;2022-08-01T01:28:25;20.60;99.90
9193;DHT22;4631;49.296;10.560;2022-08-01T01:30:55;20.50;99.90
9193;DHT22;4631;49.296;10.560;2022-08-01T01:33:23;20.50;99.90
9193;DHT22;4631;49.296;10.560;2022-08-01T01:35:56;20.50;99.90
9193;DHT22;4631;49.296;10.560;2022-08-01T01:38:25;20.40;99.90
9193;DHT22;4631;49.296;10.560;2022-08-01T01:40:52;20.40;99.90
9193;DHT22;4631;49.296;10.560;2022-08-01T01:43:19;20.30;99.90
9193;DHT22;4631;49.296;10.560;2022-08-01T01:45:47;20.30;99.90
9193;DHT22;4631;49.296;10.560;2022-08-01T01:48:16;20.30;99.90
9193;DHT22;4631;49.296;10.560;2022-08-01T01:50:43;20.30;99.90
9193;DHT22;4631;49.296;10.560;2022-08-01T01:53:12;20.30;99.90
9193;DHT22;4631;49.296;10.560;2022-08-01T01:55:38;20.20;99.90
9193;DHT22;4631;49.296;10.560;2022-08-01T01:58:05;20.30;99.90
9193;DHT22;4631;49.296;10.560;2022-08-01T02:00:33;20.20;99.90
9193;DHT22;4631;49.296;10.560;2022-08-01T02:03:01;20.20;99.90
9193;DHT22;4631;49.296;10.560;2022-08-01T02:05:29;20.20;99.90
9193;DHT22;4631;49.296;10.560;2022-08-01T02:07:59;20.20;99.90
9193;DHT22;4631;49.296;10.560;2022-08-01T02:10:26;20.20;99.90
9193;DHT22;4631;49.296;10.560;2022-08-01T02:12:53;20.20;99.90
9193;DHT22;4631;49.296;10.560;2022-08-01T02:15:20;20.20;99.90
9193;DHT22;4631;49.296;10.560;2022-08-01T02:17:49;20.10;99.90
9193;DHT22;4631;49.296;10.560;2022-08-01T02:20:16;20.10;99.90
9193;DHT22;4631;49.296;10.560;2022-08-01T02:22:46;20.10;99.90
9193;DHT22;4631;49.296;10.560;2022-08-01T02:25:15;20.10;99.90
9193;DHT22;4631;49.296;10.560;2022-08-01T02:27:46;20.00;99.90
9193;DHT22;4631;49.296;10.560;2022-08-01T02:30:16;20.00;99.90
9193;DHT22;4631;49.296;10.560;2022-08-01T02:32:44;20.00;99.90
9193;DHT22;4631;49.296;10.560;2022-08-01T02:35:13;20.00;99.90
9193;DHT22;4631;49.296;10.560;2022-08-01T02:37:40;19.90;99.90
9193;DHT22;4631;49.296;10.560;2022-08-01T02:40:09;19.80;99.90
9193;DHT22;4631;49.296;10.560;2022-08-01T02:42:37;19.80;99.90
9193;DHT22;4631;49.296;10.560;2022-08-01T02:45:04;19.70;99.90
9193;DHT22;4631;49.296;10.560;2022-08-01T02:47:33;19.70;99.90
9193;DHT22;4631;49.296;10.560;2022-08-01T02:50:02;19.70;99.90
9193;DHT22;4631;49.296;10.560;2022-08-01T02:52:29;19.70;99.90
9193;DHT22;4631;49.296;10.560;2022-08-01T02:54:57;19.60;99.90
9193;DHT22;4631;49.296;10.560;2022-08-01T02:57:26;19.60;99.90
9193;DHT22;4631;49.296;10.560;2022-08-01T02:59:53;19.60;99.90
9193;DHT22;4631;49.296;10.560;2022-08-01T03:02:22;19.50;99.90
9193;DHT22;4631;49.296;10.560;2022-08-01T03:04:49;19.50;99.90
9193;DHT22;4631;49.296;10.560;2022-08-01T03:07:16;19.50;99.90
9193;DHT22;4631;49.296;10.560;2022-08-01T03:09:45;19.40;99.90
9193;DHT22;4631;49.296;10.560;2022-08-01T03:12:13;19.50;99.90
9193;DHT22;4631;49.296;10.560;2022-08-01T03:14:42;19.40;99.90
9193;DHT22;4631;49.296;10.560;2022-08-01T03:17:09;19.40;99.90
9193;DHT22;4631;49.296;10.560;2022-08-01T03:19:36;19.40;99.90
9193;DHT22;4631;49.296;10.560;2022-08-01T03:22:05;19.40;99.90
9193;DHT22;4631;49.296;10.560;2022-08-01T03:24:32;19.40;99.90
9193;DHT22;4631;49.296;10.560;2022-08-01T03:27:00;19.40;99.90
9193;DHT22;4631;49.296;10.560;2022-08-01T03:29:27;19.40;99.90
9193;DHT22;4631;49.296;10.560;2022-08-01T03:31:56;19.30;99.90
9193;DHT22;4631;49.296;10.560;2022-08-01T03:34:24;19.30;99.90
9193;DHT22;4631;49.296;10.560;2022-08-01T03:36:52;19.30;99.90
9193;DHT22;4631;49.296;10.560;2022-08-01T03:39:21;19.20;99.90
9193;DHT22;4631;49.296;10.560;2022-08-01T03:41:51;19.20;99.90
9193;DHT22;4631;49.296;10.560;2022-08-01T03:44:20;19.20;99.90
9193;DHT22;4631;49.296;10.560;2022-08-01T03:46:49;19.20;99.90
9193;DHT22;4631;49.296;10.560;2022-08-01T03:49:20;19.20;99.90
9193;DHT22;4631;49.296;10.560;2022-08-01T03:51:49;19.10;99.90
9193;DHT22;4631;49.296;10.560;2022-08-01T03:54:17;19.10;99.90
9193;DHT22;4631;49.296;10.560;2022-08-01T03:56:46;19.10;99.90
9193;DHT22;4631;49.296;10.560;2022-08-01T03:59:14;19.10;99.90
9193;DHT22;4631;49.296;10.560;2022-08-01T04:01:41;19.10;99.90
9193;DHT22;4631;49.296;10.560;2022-08-01T04:04:09;19.10;99.90
9193;DHT22;4631;49.296;10.560;2022-08-01T04:06:38;19.10;99.90
9193;DHT22;4631;49.296;10.560;2022-08-01T04:09:06;19.10;99.90
9193;DHT22;4631;49.296;10.560;2022-08-01T04:11:32;19.20;99.90
9193;DHT22;4631;49.296;10.560;2022-08-01T04:13:59;19.10;99.90
9193;DHT22;4631;49.296;10.560;2022-08-01T04:16:26;19.10;99.90
9193;DHT22;4631;49.296;10.560;2022-08-01T04:18:52;19.10;99.90
9193;DHT22;4631;49.296;10.560;2022-08-01T04:21:20;19.10;99.90
9193;DHT22;4631;49.296;10.560;2022-08-01T04:23:50;19.20;99.90
9193;DHT22;4631;49.296;10.560;2022-08-01T04:26:18;19.10;99.90
9193;DHT22;4631;49.296;10.560;2022-08-01T04:28:45;19.10;99.90
9193;DHT22;4631;49.296;10.560;2022-08-01T04:31:12;19.10;99.90
9193;DHT22;4631;49.296;10.560;2022-08-01T04:33:43;19.10;99.90
9193;DHT22;4631;49.296;10.560;2022-08-01T04:36:12;19.20;99.90
9193;DHT22;4631;49.296;10.560;2022-08-01T04:38:39;19.10;99.90
9193;DHT22;4631;49.296;10.560;2022-08-01T04:41:07;19.10;99.90
9193;DHT22;4631;49.296;10.560;2022-08-01T04:43:36;19.10;99.90
9193;DHT22;4631;49.296;10.560;2022-08-01T04:46:02;19.10;99.90
9193;DHT22;4631;49.296;10.560;2022-08-01T04:48:29;19.10;99.90
9193;DHT22;4631;49.296;10.560;2022-08-01T04:50:57;19.10;99.90
9193;DHT22;4631;49.296;10.560;2022-08-01T04:53:24;19.20;99.90
9193;DHT22;4631;49.296;10.560;2022-08-01T04:55:51;19.20;99.90
9193;DHT22;4631;49.296;10.560;2022-08-01T04:58:19;19.30;99.90
9193;DHT22;4631;49.296;10.560;2022-08-01T05:00:46;19.30;99.90
9193;DHT22;4631;49.296;10.560;2022-08-01T05:03:13;19.20;99.90
9193;DHT22;4631;49.296;10.560;2022-08-01T05:05:39;19.30;99.90
9193;DHT22;4631;49.296;10.560;2022-08-01T05:08:06;19.30;99.90
9193;DHT22;4631;49.296;10.560;2022-08-01T05:10:33;19.30;99.90
9193;DHT22;4631;49.296;10.560;2022-08-01T05:13:00;19.30;99.90
9193;DHT22;4631;49.296;10.560;2022-08-01T05:15:28;19.30;99.90
9193;DHT22;4631;49.296;10.560;2022-08-01T05:17:54;19.40;99.90
9193;DHT22;4631;49.296;10.560;2022-08-01T05:20:21;19.40;99.90
9193;DHT22;4631;49.296;10.560;2022-08-01T05:22:48;19.30;99.90
9193;DHT22;4631;49.296;10.560;2022-08-01T05:25:14;19.30;99.90
9193;DHT22;4631;49.296;10.560;2022-08-01T05:27:41;19.30;99.90
9193;DHT22;4631;49.296;10.560;2022-08-01T05:30:08;19.30;99.90
9193;DHT22;4631;49.296;10.560;2022-08-01T05:32:36;19.40;99.90
9193;DHT22;4631;49.296;10.560;2022-08-01T05:35:03;19.40;99.90
9193;DHT22;4631;49.296;10.560;2022-08-01T05:37:30;19.50;99.90
9193;DHT22;4631;49.296;10.560;2022-08-01T05:39:57;19.50;99.90
9193;DHT22;4631;49.296;10.560;2022-08-01T05:42:23;19.50;99.90
9193;DHT22;4631;49.296;10.560;2022-08-01T05:44:50;19.50;99.90
9193;DHT22;4631;49.296;10.560;2022-08-01T05:47:17;19.50;99.90
9193;DHT22;4631;49.296;10.560;2022-08-01T05:49:45;19.50;99.90
9193;DHT22;4631;49.296;10.560;2022-08-01T05:52:12;19.50;99.90
9193;DHT22;4631;49.296;10.560;2022-08-01T05:54:39;19.70;99.90
9193;DHT22;4631;49.296;10.560;2022-08-01T05:57:05;19.80;99.90
9193;DHT22;4631;49.296;10.560;2022-08-01T06:02:07;20.00;99.90
9193;DHT22;4631;49.296;10.560;2022-08-01T06:04:34;20.10;99.90
9193;DHT22;4631;49.296;10.560;2022-08-01T06:07:02;20.20;99.90
9193;DHT22;4631;49.296;10.560;2022-08-01T06:09:28;20.30;99.90
9193;DHT22;4631;49.296;10.560;2022-08-01T06:11:56;20.30;99.90
9193;DHT22;4631;49.296;10.560;2022-08-01T06:14:22;20.40;99.90
9193;DHT22;4631;49.296;10.560;2022-08-01T06:16:49;20.50;99.90
9193;DHT22;4631;49.296;10.560;2022-08-01T06:19:16;20.50;99.90
9193;DHT22;4631;49.296;10.560;2022-08-01T06:21:42;20.60;99.90
9193;DHT22;4631;49.296;10.560;2022-08-01T06:24:10;20.70;99.90
9193;DHT22;4631;49.296;10.560;2022-08-01T06:26:37;20.70;99.90
9193;DHT22;4631;49.296;10.560;2022-08-01T06:29:04;20.80;99.90
9193;DHT22;4631;49.296;10.560;2022-08-01T06:31:30;20.80;99.90
9193;DHT22;4631;49.296;10.560;2022-08-01T06:33:57;20.90;99.90
9193;DHT22;4631;49.296;10.560;2022-08-01T06:36:24;20.90;99.90
9193;DHT22;4631;49.296;10.560;2022-08-01T06:38:51;20.90;99.90
9193;DHT22;4631;49.296;10.560;2022-08-01T06:41:19;21.00;99.90
9193;DHT22;4631;49.296;10.560;2022-08-01T06:43:45;21.00;99.90
9193;DHT22;4631;49.296;10.560;2022-08-01T06:46:12;21.00;99.90
9193;DHT22;4631;49.296;10.560;2022-08-01T06:48:39;21.10;99.90
9193;DHT22;4631;49.296;10.560;2022-08-01T06:51:05;21.20;99.90
9193;DHT22;4631;49.296;10.560;2022-08-01T06:53:38;21.30;99.90
9193;DHT22;4631;49.296;10.560;2022-08-01T06:56:05;21.30;99.90
9193;DHT22;4631;49.296;10.560;2022-08-01T06:58:35;21.40;99.90
9193;DHT22;4631;49.296;10.560;2022-08-01T07:01:02;21.40;99.90
9193;DHT22;4631;49.296;10.560;2022-08-01T07:03:31;21.40;99.90
9193;DHT22;4631;49.296;10.560;2022-08-01T07:05:57;21.50;99.90
9193;DHT22;4631;49.296;10.560;2022-08-01T07:08:24;21.40;99.90
9193;DHT22;4631;49.296;10.560;2022-08-01T07:10:51;21.50;99.90
9193;DHT22;4631;49.296;10.560;2022-08-01T07:13:17;21.50;99.90
9193;DHT22;4631;49.296;10.560;2022-08-01T07:15:48;21.60;99.90
9193;DHT22;4631;49.296;10.560;2022-08-01T07:18:14;21.60;99.90
9193;DHT22;4631;49.296;10.560;2022-08-01T07:20:41;21.70;99.90
9193;DHT22;4631;49.296;10.560;2022-08-01T07:23:08;21.70;99.90
9193;DHT22;4631;49.296;10.560;2022-08-01T07:25:35;21.80;99.90
9193;DHT22;4631;49.296;10.560;2022-08-01T07:28:01;21.80;99.90
9193;DHT22;4631;49.296;10.560;2022-08-01T07:30:28;21.90;99.90
9193;DHT22;4631;49.296;10.560;2022-08-01T07:32:56;22.00;99.90
9193;DHT22;4631;49.296;10.560;2022-08-01T07:35:23;22.10;99.90
9193;DHT22;4631;49.296;10.560;2022-08-01T07:37:49;22.10;99.90
9193;DHT22;4631;49.296;10.560;2022-08-01T07:40:19;22.00;99.90
9193;DHT22;4631;49.296;10.560;2022-08-01T07:42:45;22.00;99.90
9193;DHT22;4631;49.296;10.560;2022-08-01T07:45:12;22.10;99.90
9193;DHT22;4631;49.296;10.560;2022-08-01T07:47:39;22.10;99.90
9193;DHT22;4631;49.296;10.560;2022-08-01T07:50:07;22.20;99.90
9193;DHT22;4631;49.296;10.560;2022-08-01T07:52:34;22.20;99.90
9193;DHT22;4631;49.296;10.560;2022-08-01T07:55:01;22.20;99.90
9193;DHT22;4631;49.296;10.560;2022-08-01T07:57:27;22.30;99.90
9193;DHT22;4631;49.296;10.560;2022-08-01T07:59:54;22.30;99.90
9193;DHT22;4631;49.296;10.560;2022-08-01T08:02:21;22.50;99.90
9193;DHT22;4631;49.296;10.560;2022-08-01T08:04:47;22.50;99.90
9193;DHT22;4631;49.296;10.560;2022-08-01T08:07:16;22.50;99.90
9193;DHT22;4631;49.296;10.560;2022-08-01T08:09:42;22.60;99.90
9193;DHT22;4631;49.296;10.560;2022-08-01T08:12:09;22.60;99.90
9193;DHT22;4631;49.296;10.560;2022-08-01T08:14:36;22.70;99.90
9193;DHT22;4631;49.296;10.560;2022-08-01T08:17:02;22.70;99.90
9193;DHT22;4631;49.296;10.560;2022-08-01T08:19:29;22.80;99.90
9193;DHT22;4631;49.296;10.560;2022-08-01T08:21:58;22.80;99.90
9193;DHT22;4631;49.296;10.560;2022-08-01T08:24:26;22.90;99.90
9193;DHT22;4631;49.296;10.560;2022-08-01T08:26:54;22.90;99.90
9193;DHT22;4631;49.296;10.560;2022-08-01T08:29:21;22.90;99.90
9193;DHT22;4631;49.296;10.560;2022-08-01T08:31:48;22.90;99.90
9193;DHT22;4631;49.296;10.560;2022-08-01T08:34:15;22.90;99.90
9193;DHT22;4631;49.296;10.560;2022-08-01T08:36:41;22.90;99.90
9193;DHT22;4631;49.296;10.560;2022-08-01T08:39:08;22.90;99.90
9193;DHT22;4631;49.296;10.560;2022-08-01T08:41:36;22.90;99.90
9193;DHT22;4631;49.296;10.560;2022-08-01T08:44:03;23.00;99.90
9193;DHT22;4631;49.296;10.560;2022-08-01T08:46:31;23.00;99.90
9193;DHT22;4631;49.296;10.560;2022-08-01T08:48:59;23.00;99.90
9193;DHT22;4631;49.296;10.560;2022-08-01T08:51:26;23.10;99.90
9193;DHT22;4631;49.296;10.560;2022-08-01T08:53:53;23.10;99.90
9193;DHT22;4631;49.296;10.560;2022-08-01T08:56:21;23.10;99.90
9193;DHT22;4631;49.296;10.560;2022-08-01T08:58:51;23.20;99.90
9193;DHT22;4631;49.296;10.560;2022-08-01T09:01:17;23.30;99.90
9193;DHT22;4631;49.296;10.560;2022-08-01T09:03:44;23.30;99.90
9193;DHT22;4631;49.296;10.560;2022-08-01T09:06:11;23.30;99.90
9193;DHT22;4631;49.296;10.560;2022-08-01T09:08:37;23.40;99.90
9193;DHT22;4631;49.296;10.560;2022-08-01T09:11:04;23.40;99.90
9193;DHT22;4631;49.296;10.560;2022-08-01T09:13:31;23.40;99.90
9193;DHT22;4631;49.296;10.560;2022-08-01T09:15:59;23.40;99.90
9193;DHT22;4631;49.296;10.560;2022-08-01T09:18:26;23.50;99.90
9193;DHT22;4631;49.296;10.560;2022-08-01T09:21:06;23.50;99.90
9193;DHT22;4631;49.296;10.560;2022-08-01T09:23:33;23.60;99.90
9193;DHT22;4631;49.296;10.560;2022-08-01T09:26:00;23.70;99.90
9193;DHT22;4631;49.296;10.560;2022-08-01T09:28:27;23.70;99.90
9193;DHT22;4631;49.296;10.560;2022-08-01T09:30:55;23.80;99.90
9193;DHT22;4631;49.296;10.560;2022-08-01T09:33:23;23.80;99.90
9193;DHT22;4631;49.296;10.560;2022-08-01T09:35:53;23.90;99.90
9193;DHT22;4631;49.296;10.560;2022-08-01T09:38:21;23.90;99.90
9193;DHT22;4631;49.296;10.560;2022-08-01T09:40:50;23.90;99.90
9193;DHT22;4631;49.296;10.560;2022-08-01T09:43:16;24.00;99.90
9193;DHT22;4631;49.296;10.560;2022-08-01T09:45:43;24.00;99.90
9193;DHT22;4631;49.296;10.560;2022-08-01T09:48:10;24.20;99.90
9193;DHT22;4631;49.296;10.560;2022-08-01T09:50:42;24.30;99.90
9193;DHT22;4631;49.296;10.560;2022-08-01T09:53:08;24.40;99.90
9193;DHT22;4631;49.296;10.560;2022-08-01T09:55:35;24.50;99.90
9193;DHT22;4631;49.296;10.560;2022-08-01T09:58:03;24.50;99.90
9193;DHT22;4631;49.296;10.560;2022-08-01T10:00:30;24.50;99.90
9193;DHT22;4631;49.296;10.560;2022-08-01T10:02:57;24.50;99.90
9193;DHT22;4631;49.296;10.560;2022-08-01T10:05:30;24.50;99.90
9193;DHT22;4631;49.296;10.560;2022-08-01T10:07:59;24.50;99.90
9193;DHT22;4631;49.296;10.560;2022-08-01T10:10:26;24.50;99.90
9193;DHT22;4631;49.296;10.560;2022-08-01T10:12:53;24.40;99.90
9193;DHT22;4631;49.296;10.560;2022-08-01T10:15:21;24.40;99.90
9193;DHT22;4631;49.296;10.560;2022-08-01T10:17:50;24.40;99.90
9193;DHT22;4631;49.296;10.560;2022-08-01T10:20:19;24.30;99.90
9193;DHT22;4631;49.296;10.560;2022-08-01T10:22:46;24.30;99.90
9193;DHT22;4631;49.296;10.560;2022-08-01T10:25:14;24.30;99.90
9193;DHT22;4631;49.296;10.560;2022-08-01T10:27:43;24.20;99.90
9193;DHT22;4631;49.296;10.560;2022-08-01T10:30:11;24.10;99.90
9193;DHT22;4631;49.296;10.560;2022-08-01T10:32:38;24.20;99.90
9193;DHT22;4631;49.296;10.560;2022-08-01T10:35:08;24.30;99.90
9193;DHT22;4631;49.296;10.560;2022-08-01T10:37:34;24.50;99.90
9193;DHT22;4631;49.296;10.560;2022-08-01T10:40:02;24.70;99.90
9193;DHT22;4631;49.296;10.560;2022-08-01T10:42:31;24.70;99.90
9193;DHT22;4631;49.296;10.560;2022-08-01T10:44:59;24.70;99.90
9193;DHT22;4631;49.296;10.560;2022-08-01T10:47:27;24.70;99.90
9193;DHT22;4631;49.296;10.560;2022-08-01T10:50:00;24.70;99.90
9193;DHT22;4631;49.296;10.560;2022-08-01T10:52:28;24.90;99.90
9193;DHT22;4631;49.296;10.560;2022-08-01T10:55:01;25.20;99.90
9193;DHT22;4631;49.296;10.560;2022-08-01T10:57:41;25.40;99.90
9193;DHT22;4631;49.296;10.560;2022-08-01T11:00:08;25.60;99.90
9193;DHT22;4631;49.296;10.560;2022-08-01T11:02:36;25.70;99.90
9193;DHT22;4631;49.296;10.560;2022-08-01T11:05:07;25.90;99.90
9193;DHT22;4631;49.296;10.560;2022-08-01T11:07:38;26.00;99.90
9193;DHT22;4631;49.296;10.560;2022-08-01T11:10:09;26.20;99.90
9193;DHT22;4631;49.296;10.560;2022-08-01T11:12:39;26.40;99.90
9193;DHT22;4631;49.296;10.560;2022-08-01T11:15:17;26.60;99.90
9193;DHT22;4631;49.296;10.560;2022-08-01T11:17:50;26.80;99.90
9193;DHT22;4631;49.296;10.560;2022-08-01T11:20:18;27.00;99.90
9193;DHT22;4631;49.296;10.560;2022-08-01T11:28:19;26.70;99.90
9193;DHT22;4631;49.296;10.560;2022-08-01T11:30:51;26.80;99.90
9193;DHT22;4631;49.296;10.560;2022-08-01T11:33:47;26.80;99.90
9193;DHT22;4631;49.296;10.560;2022-08-01T11:36:18;27.10;99.90
9193;DHT22;4631;49.296;10.560;2022-08-01T11:38:47;27.30;99.90
9193;DHT22;4631;49.296;10.560;2022-08-01T11:41:14;27.30;99.90
9193;DHT22;4631;49.296;10.560;2022-08-01T11:43:54;27.30;99.90
9193;DHT22;4631;49.296;10.560;2022-08-01T11:49:23;27.50;99.90
9193;DHT22;4631;49.296;10.560;2022-08-01T11:51:56;27.70;99.90
9193;DHT22;4631;49.296;10.560;2022-08-01T11:54:34;28.00;99.90
9193;DHT22;4631;49.296;10.560;2022-08-01T11:57:06;28.00;99.90
9193;DHT22;4631;49.296;10.560;2022-08-01T11:59:37;28.20;99.90
9193;DHT22;4631;49.296;10.560;2022-08-01T12:02:04;28.40;99.90
9193;DHT22;4631;49.296;10.560;2022-08-01T12:04:48;28.50;99.90
9193;DHT22;4631;49.296;10.560;2022-08-01T12:07:16;28.70;99.90
9193;DHT22;4631;49.296;10.560;2022-08-01T12:09:43;28.80;99.90
9193;DHT22;4631;49.296;10.560;2022-08-01T12:12:09;28.80;99.90
9193;DHT22;4631;49.296;10.560;2022-08-01T12:14:36;28.80;99.90
9193;DHT22;4631;49.296;10.560;2022-08-01T12:17:03;28.80;99.90
9193;DHT22;4631;49.296;10.560;2022-08-01T12:19:30;28.90;99.90
9193;DHT22;4631;49.296;10.560;2022-08-01T12:22:08;29.00;99.90
9193;DHT22;4631;49.296;10.560;2022-08-01T12:24:35;29.10;99.90
9193;DHT22;4631;49.296;10.560;2022-08-01T12:27:02;29.30;99.90
9193;DHT22;4631;49.296;10.560;2022-08-01T12:29:35;29.30;99.90
9193;DHT22;4631;49.296;10.560;2022-08-01T12:32:03;29.40;99.90
9193;DHT22;4631;49.296;10.560;2022-08-01T12:34:30;29.20;99.90
9193;DHT22;4631;49.296;10.560;2022-08-01T12:37:00;29.30;99.90
9193;DHT22;4631;49.296;10.560;2022-08-01T12:39:32;29.30;99.90
9193;DHT22;4631;49.296;10.560;2022-08-01T12:41:59;29.10;99.90
9193;DHT22;4631;49.296;10.560;2022-08-01T12:44:26;29.00;99.90
9193;DHT22;4631;49.296;10.560;2022-08-01T12:46:54;28.70;99.90
9193;DHT22;4631;49.296;10.560;2022-08-01T12:49:21;28.60;99.90
9193;DHT22;4631;49.296;10.560;2022-08-01T12:51:48;28.30;99.90
9193;DHT22;4631;49.296;10.560;2022-08-01T12:54:15;28.10;99.90
9193;DHT22;4631;49.296;10.560;2022-08-01T12:56:43;27.90;99.90
9193;DHT22;4631;49.296;10.560;2022-08-01T12:59:21;27.90;99.90
9193;DHT22;4631;49.296;10.560;2022-08-01T13:01:50;27.60;99.90
9193;DHT22;4631;49.296;10.560;2022-08-01T13:04:17;27.40;99.90
9193;DHT22;4631;49.296;10.560;2022-08-01T13:06:44;27.20;99.90
9193;DHT22;4631;49.296;10.560;2022-08-01T13:09:11;27.10;99.90
9193;DHT22;4631;49.296;10.560;2022-08-01T13:11:38;27.10;99.90
9193;DHT22;4631;49.296;10.560;2022-08-01T13:14:07;27.10;99.90
9193;DHT22;4631;49.296;10.560;2022-08-01T13:16:44;27.10;99.90
9193;DHT22;4631;49.296;10.560;2022-08-01T13:22:07;27.10;99.90
9193;DHT22;4631;49.296;10.560;2022-08-01T13:24:33;27.30;99.90
9193;DHT22;4631;49.296;10.560;2022-08-01T13:27:01;27.40;99.90
9193;DHT22;4631;49.296;10.560;2022-08-01T13:29:30;27.60;99.90
9193;DHT22;4631;49.296;10.560;2022-08-01T13:31:58;28.00;99.90
9193;DHT22;4631;49.296;10.560;2022-08-01T13:34:32;28.10;99.90
9193;DHT22;4631;49.296;10.560;2022-08-01T13:36:58;28.10;99.90
9193;DHT22;4631;49.296;10.560;2022-08-01T13:39:27;28.20;99.90
9193;DHT22;4631;49.296;10.560;2022-08-01T13:42:10;28.20;99.90
9193;DHT22;4631;49.296;10.560;2022-08-01T13:44:38;28.30;99.90
9193;DHT22;4631;49.296;10.560;2022-08-01T13:47:05;28.40;99.90
9193;DHT22;4631;49.296;10.560;2022-08-01T13:49:32;28.30;99.90
9193;DHT22;4631;49.296;10.560;2022-08-01T13:51:59;28.20;99.90
9193;DHT22;4631;49.296;10.560;2022-08-01T13:54:26;28.30;99.90
9193;DHT22;4631;49.296;10.560;2022-08-01T13:56:53;28.50;99.90
9193;DHT22;4631;49.296;10.560;2022-08-01T13:59:20;28.60;99.90
9193;DHT22;4631;49.296;10.560;2022-08-01T14:01:49;28.70;99.90
9193;DHT22;4631;49.296;10.560;2022-08-01T14:04:15;28.80;99.90
9193;DHT22;4631;49.296;10.560;2022-08-01T14:06:42;28.80;99.90
9193;DHT22;4631;49.296;10.560;2022-08-01T14:09:09;28.80;99.90
9193;DHT22;4631;49.296;10.560;2022-08-01T14:11:39;28.60;99.90
9193;DHT22;4631;49.296;10.560;2022-08-01T14:14:06;28.60;99.60
9193;DHT22;4631;49.296;10.560;2022-08-01T14:16:33;28.50;99.90
9193;DHT22;4631;49.296;10.560;2022-08-01T14:19:01;28.70;99.90
9193;DHT22;4631;49.296;10.560;2022-08-01T14:21:28;28.50;99.90
9193;DHT22;4631;49.296;10.560;2022-08-01T14:23:54;28.60;99.90
9193;DHT22;4631;49.296;10.560;2022-08-01T14:26:21;28.70;99.90
9193;DHT22;4631;49.296;10.560;2022-08-01T14:28:48;28.80;99.90
9193;DHT22;4631;49.296;10.560;2022-08-01T14:31:15;28.80;99.90
9193;DHT22;4631;49.296;10.560;2022-08-01T14:33:41;28.80;99.90
9193;DHT22;4631;49.296;10.560;2022-08-01T14:36:11;28.80;99.70
9193;DHT22;4631;49.296;10.560;2022-08-01T14:38:38;28.70;99.20
9193;DHT22;4631;49.296;10.560;2022-08-01T14:41:04;28.70;99.10
9193;DHT22;4631;49.296;10.560;2022-08-01T14:43:31;28.80;99.00
9193;DHT22;4631;49.296;10.560;2022-08-01T14:45:58;29.00;99.80
9193;DHT22;4631;49.296;10.560;2022-08-01T14:48:25;29.30;99.50
9193;DHT22;4631;49.296;10.560;2022-08-01T14:50:52;29.60;99.00
9193;DHT22;4631;49.296;10.560;2022-08-01T14:53:20;29.80;97.90
9193;DHT22;4631;49.296;10.560;2022-08-01T14:55:47;30.00;97.10
9193;DHT22;4631;49.296;10.560;2022-08-01T14:58:14;30.00;97.50
9193;DHT22;4631;49.296;10.560;2022-08-01T15:00:40;30.20;96.70
9193;DHT22;4631;49.296;10.560;2022-08-01T15:03:07;30.10;97.10
9193;DHT22;4631;49.296;10.560;2022-08-01T15:05:34;30.00;96.90
9193;DHT22;4631;49.296;10.560;2022-08-01T15:08:01;30.10;97.00
9193;DHT22;4631;49.296;10.560;2022-08-01T15:10:29;30.30;96.80
9193;DHT22;4631;49.296;10.560;2022-08-01T15:12:57;30.50;96.20
9193;DHT22;4631;49.296;10.560;2022-08-01T15:15:25;30.60;95.90
9193;DHT22;4631;49.296;10.560;2022-08-01T15:17:52;30.50;94.70
9193;DHT22;4631;49.296;10.560;2022-08-01T15:20:19;30.40;94.70
9193;DHT22;4631;49.296;10.560;2022-08-01T15:22:46;30.30;95.40
9193;DHT22;4631;49.296;10.560;2022-08-01T15:25:13;30.40;95.10
9193;DHT22;4631;49.296;10.560;2022-08-01T15:27:41;30.40;95.30
9193;DHT22;4631;49.296;10.560;2022-08-01T15:30:09;30.50;95.20
9193;DHT22;4631;49.296;10.560;2022-08-01T15:32:36;30.30;95.50
9193;DHT22;4631;49.296;10.560;2022-08-01T15:35:03;30.20;95.70
9193;DHT22;4631;49.296;10.560;2022-08-01T15:37:31;30.30;96.50
9193;DHT22;4631;49.296;10.560;2022-08-01T15:39:58;30.40;95.70
9193;DHT22;4631;49.296;10.560;2022-08-01T15:42:25;30.10;95.20
9193;DHT22;4631;49.296;10.560;2022-08-01T15:44:53;29.90;95.70
9193;DHT22;4631;49.296;10.560;2022-08-01T15:47:20;29.60;96.20
9193;DHT22;4631;49.296;10.560;2022-08-01T15:49:47;29.40;96.10
9193;DHT22;4631;49.296;10.560;2022-08-01T15:52:13;29.20;96.50
9193;DHT22;4631;49.296;10.560;2022-08-01T15:54:40;29.10;96.70
9193;DHT22;4631;49.296;10.560;2022-08-01T15:57:07;29.00;96.80
9193;DHT22;4631;49.296;10.560;2022-08-01T15:59:34;29.00;96.70
9193;DHT22;4631;49.296;10.560;2022-08-01T16:02:03;29.00;96.50
9193;DHT22;4631;49.296;10.560;2022-08-01T16:04:33;29.10;96.70